Time;durP1;ratioP1;P1;durP2;ratioP2;P2;SDS_P1;SDS_P2;PMS_P1;PMS_P2;Temp;Humidity;BMP_temperature;BMP_pressure;BME280_temperature;BME280_humidity;BME280_pressure;Samples;Min_cycle;Max_cycle;Signal;HPM_P1;HPM_P2
2023/05/26 00:02:43;;;;;;;;;38.60;32.80;;;;;18.17;75.99;99356.97;7719480;22;96712;-59
2023/05/26 00:05:47;;;;;;;;;40.80;33.00;;;;;18.19;75.36;99357.50;7773791;22;97008;-59
2023/05/26 00:08:50;;;;;;;;;43.00;35.40;;;;;18.19;75.86;99359.41;7747554;22;96318;-59
2023/05/26 00:11:54;;;;;;;;;48.60;34.60;;;;;18.12;75.78;99359.66;7772556;22;96776;-59
2023/05/26 00:14:59;;;;;;;;;43.60;34.80;;;;;18.16;76.01;99357.22;7746107;22;97595;-59
2023/05/26 00:18:02;;;;;;;;;42.00;34.00;;;;;18.16;75.76;99352.56;7774053;22;96224;-59
2023/05/26 00:21:06;;;;;;;;;41.00;33.00;;;;;18.12;75.77;99356.91;7773713;22;96283;-59
2023/05/26 00:24:09;;;;;;;;;46.60;35.80;;;;;18.22;75.84;99348.00;7772811;22;96751;-59
2023/05/26 00:27:13;;;;;;;;;42.60;34.00;;;;;18.19;75.76;99357.50;7772323;22;96228;-59
2023/05/26 00:30:18;;;;;;;;;42.80;33.80;;;;;18.23;75.46;99341.44;7740924;22;97015;-59
2023/05/26 00:33:21;;;;;;;;;41.40;33.00;;;;;18.17;76.03;99342.50;7772928;22;96441;-59
2023/05/26 00:36:26;;;;;;;;;41.00;33.00;;;;;18.14;76.00;99343.00;7770119;22;97043;-59
2023/05/26 00:39:30;;;;;;;;;44.20;34.40;;;;;18.19;76.19;99346.59;7770801;22;96831;-59
2023/05/26 00:42:34;;;;;;;;;40.00;33.00;;;;;18.18;76.06;99349.56;7743459;22;97067;-59
2023/05/26 00:45:38;;;;;;;;;45.00;35.25;;;;;18.15;75.91;99340.00;7745182;22;96358;-59
2023/05/26 00:48:42;;;;;;;;;42.00;32.80;;;;;18.16;75.90;99343.56;7744806;22;96463;-59
2023/05/26 00:51:46;;;;;;;;;36.00;32.00;;;;;18.19;76.15;99346.59;7743795;22;96554;-59
2023/05/26 00:54:50;;;;;;;;;45.00;35.00;;;;;18.20;76.32;99339.22;7769951;22;96411;-59
2023/05/26 00:57:53;;;;;;;;;43.00;34.00;;;;;18.28;75.90;99346.94;7742384;22;96594;-59
2023/05/26 01:00:58;;;;;;;;;41.40;35.00;;;;;18.27;75.38;99344.47;7717052;22;97011;-60
2023/05/26 01:04:02;;;;;;;;;41.80;33.00;;;;;18.24;75.83;99345.81;7772295;22;96552;-59
2023/05/26 01:07:06;;;;;;;;;40.00;32.60;;;;;18.24;75.69;99344.97;7746460;22;99452;-59
2023/05/26 01:10:10;;;;;;;;;43.00;33.00;;;;;18.22;75.36;99336.25;7774206;22;96865;-59
2023/05/26 01:13:21;;;;;;;;;37.00;31.00;;;;;18.22;76.07;99328.06;7773001;22;97163;-59
2023/05/26 01:16:30;;;;;;;;;39.20;33.80;;;;;18.28;75.36;99327.00;7772721;22;96762;-59
2023/05/26 01:20:03;;;;;;;;;41.00;33.00;;;;;18.28;75.00;99322.34;7772601;22;96392;-59
2023/05/26 01:23:22;;;;;;;;;39.50;33.50;;;;;18.32;75.01;99322.69;7774435;22;96276;-59
2023/05/26 01:26:37;;;;;;;;;40.60;32.60;;;;;18.27;75.08;99318.00;7774569;22;96539;-59
2023/05/26 01:29:42;;;;;;;;;38.00;32.00;;;;;18.25;75.46;99314.72;7747646;22;96466;-59
2023/05/26 01:32:48;;;;;;;;;39.20;34.00;;;;;18.25;75.75;99316.63;7747808;22;98093;-59
2023/05/26 01:35:51;;;;;;;;;41.00;32.00;;;;;18.16;75.94;99322.56;7775518;22;98134;-59
2023/05/26 01:38:56;;;;;;;;;41.20;35.00;;;;;18.17;75.77;99315.19;7773587;22;96379;-59
2023/05/26 01:42:08;;;;;;;;;45.00;35.00;;;;;18.11;76.18;99313.50;7775255;22;96886;-59
2023/05/26 01:45:31;;;;;;;;;41.20;33.00;;;;;18.06;76.44;99324.38;7747537;22;96606;-59
2023/05/26 01:48:37;;;;;;;;;39.40;31.00;;;;;18.04;76.47;99315.63;7746579;22;98377;-59
2023/05/26 01:51:46;;;;;;;;;42.50;35.00;;;;;18.06;77.08;99319.75;7775231;22;96261;-59
2023/05/26 01:54:53;;;;;;;;;44.25;35.75;;;;;18.00;76.92;99317.22;7748126;22;96548;-59
2023/05/26 01:57:57;;;;;;;;;41.20;34.20;;;;;17.93;77.53;99322.91;7746624;22;96510;-59
2023/05/26 02:01:07;;;;;;;;;40.00;33.00;;;;;17.96;77.27;99319.66;7757969;22;96462;-59
2023/05/26 02:04:12;;;;;;;;;36.00;32.00;;;;;17.96;77.42;99322.38;7780047;22;96256;-62
2023/05/26 02:07:15;;;;;;;;;35.40;31.00;;;;;17.97;77.37;99320.47;7780097;22;96259;-62
2023/05/26 02:10:19;;;;;;;;;39.40;33.00;;;;;18.02;77.12;99321.34;7753723;22;97255;-61
2023/05/26 02:13:23;;;;;;;;;37.60;32.60;;;;;18.04;77.32;99321.06;7779888;22;98260;-60
2023/05/26 02:16:28;;;;;;;;;35.80;32.00;;;;;18.02;77.12;99317.78;7807516;22;96189;-59
2023/05/26 02:19:33;;;;;;;;;36.40;30.00;;;;;17.99;77.22;99307.38;7754219;22;96766;-59
2023/05/26 02:22:36;;;;;;;;;35.40;30.00;;;;;17.96;76.92;99308.75;7753067;22;96601;-59
2023/05/26 02:25:39;;;;;;;;;37.00;32.00;;;;;17.94;77.06;99302.72;7804674;22;96356;-60
2023/05/26 02:28:43;;;;;;;;;38.60;33.00;;;;;17.96;76.84;99303.28;7779307;22;96201;-59
2023/05/26 02:31:48;;;;;;;;;36.00;31.50;;;;;17.94;76.81;99307.34;7803634;22;97120;-59
2023/05/26 02:34:52;;;;;;;;;39.40;32.00;;;;;17.90;77.07;99301.59;7806753;22;96660;-59
2023/05/26 02:37:55;;;;;;;;;34.00;30.80;;;;;17.94;76.67;99307.34;7775093;22;98407;-59
2023/05/26 02:40:59;;;;;;;;;35.40;31.40;;;;;17.97;76.80;99301.38;7805054;22;96164;-59
2023/05/26 02:44:02;;;;;;;;;34.60;32.00;;;;;17.95;76.72;99298.91;7774642;22;96791;-59
2023/05/26 02:47:07;;;;;;;;;38.00;33.00;;;;;17.87;76.22;99287.66;7801772;22;96782;-59
2023/05/26 02:50:11;;;;;;;;;35.40;31.00;;;;;17.94;76.55;99301.88;7801703;22;96261;-59
2023/05/26 02:53:15;;;;;;;;;33.00;30.00;;;;;17.89;76.47;99299.94;7776906;22;96316;-59
2023/05/26 02:56:19;;;;;;;;;35.60;31.00;;;;;17.91;76.30;99300.50;7805393;22;96315;-59
2023/05/26 02:59:22;;;;;;;;;36.40;31.40;;;;;17.90;76.30;99301.59;7776780;22;96818;-59
2023/05/26 03:02:27;;;;;;;;;32.50;30.00;;;;;17.89;76.23;99301.84;7776787;22;96319;-59
2023/05/26 03:05:30;;;;;;;;;31.25;28.25;;;;;17.91;76.59;99302.41;7778639;22;96179;-59
2023/05/26 03:08:34;;;;;;;;;39.00;30.80;;;;;17.92;76.19;99298.59;7778786;22;96170;-59
2023/05/26 03:11:37;;;;;;;;;38.40;30.00;;;;;17.91;76.45;99299.69;7779098;22;96335;-59
2023/05/26 03:14:41;;;;;;;;;36.00;31.00;;;;;17.90;76.16;99296.13;7780667;22;96436;-59
2023/05/26 03:17:46;;;;;;;;;31.00;28.00;;;;;17.88;76.17;99297.50;7779978;22;96913;-59
2023/05/26 03:20:50;;;;;;;;;31.20;29.20;;;;;17.93;75.79;99295.63;7790776;22;98181;-59
2023/05/26 03:23:55;;;;;;;;;28.80;27.60;;;;;17.95;75.96;99300.81;7820685;22;96238;-59
2023/05/26 03:26:58;;;;;;;;;30.00;28.00;;;;;17.97;76.00;99307.66;7817832;22;96887;-59
2023/05/26 03:30:04;;;;;;;;;34.40;30.00;;;;;17.98;75.65;99295.69;7820692;22;96163;-59
2023/05/26 03:33:09;;;;;;;;;28.00;27.00;;;;;17.97;75.65;99293.19;7819323;22;96314;-59
2023/05/26 03:36:13;;;;;;;;;38.00;32.00;;;;;17.98;76.09;99295.69;7818190;22;96182;-59
2023/05/26 03:39:17;;;;;;;;;30.80;27.80;;;;;17.94;75.75;99282.78;7817704;22;98276;-59
2023/05/26 03:42:20;;;;;;;;;36.00;32.00;;;;;18.03;75.54;99298.41;7846538;22;96843;-59
2023/05/26 03:45:24;;;;;;;;;31.00;28.80;;;;;18.02;75.40;99285.88;7820301;22;96226;-59
2023/05/26 03:48:29;;;;;;;;;37.40;32.00;;;;;18.13;75.05;99293.03;7818308;22;97114;-59
2023/05/26 03:51:33;;;;;;;;;35.00;29.33;;;;;18.16;74.84;99299.91;7817999;22;96175;-59
2023/05/26 03:54:37;;;;;;;;;32.00;29.25;;;;;18.08;74.81;99276.63;7818834;22;97466;-59
2023/05/26 03:57:40;;;;;;;;;38.40;31.20;;;;;18.19;75.00;99294.75;7812364;22;96712;-59
2023/05/26 04:00:43;;;;;;;;;38.75;32.25;;;;;18.28;75.19;99291.50;7787786;22;96583;-59
2023/05/26 04:03:48;;;;;;;;;34.75;30.00;;;;;18.30;74.81;99294.81;7811405;22;96626;-59
2023/05/26 04:06:54;;;;;;;;;36.00;30.00;;;;;18.31;75.06;99297.28;7814967;22;96147;-59
2023/05/26 04:09:57;;;;;;;;;33.20;30.00;;;;;18.37;74.84;99295.44;7789906;22;96599;-59
2023/05/26 04:13:00;;;;;;;;;33.00;29.00;;;;;18.44;74.32;99307.75;7841353;22;96238;-59
2023/05/26 04:16:04;;;;;;;;;37.00;32.00;;;;;18.51;73.59;99302.06;7788312;22;98455;-59
2023/05/26 04:19:11;;;;;;;;;39.40;30.60;;;;;18.62;73.41;99311.97;7787759;22;96765;-59
2023/05/26 04:22:14;;;;;;;;;35.00;31.00;;;;;18.72;73.14;99308.50;7807534;22;96325;-59
2023/05/26 04:25:19;;;;;;;;;34.00;30.00;;;;;18.82;72.62;99300.34;7778829;22;96350;-59
2023/05/26 04:28:35;;;;;;;;;37.20;30.20;;;;;18.87;72.55;99309.41;7779680;22;96166;-59
2023/05/26 04:32:20;;;;;;;;;35.50;30.50;;;;;19.06;71.84;99309.75;7648370;22;96601;-59
2023/05/26 04:35:30;;;;;;;;;38.50;31.00;;;;;19.27;71.34;99306.03;7650074;22;96398;-59
2023/05/26 04:38:34;;;;;;;;;36.80;31.80;;;;;19.42;70.23;99300.63;7778258;22;96323;-59
2023/05/26 04:41:38;;;;;;;;;35.60;30.60;;;;;19.54;69.28;99305.88;7804655;22;96209;-59
2023/05/26 04:44:43;;;;;;;;;33.40;30.00;;;;;19.59;69.37;99296.88;7778008;22;96163;-59
2023/05/26 04:47:49;;;;;;;;;39.00;32.00;;;;;19.69;68.96;99294.16;7751760;22;97459;-59
2023/05/26 04:50:54;;;;;;;;;35.25;30.00;;;;;19.85;68.98;99295.78;7775625;22;96184;-60
2023/05/26 04:53:58;;;;;;;;;34.00;30.00;;;;;19.92;68.53;99304.56;7803108;22;96260;-59
2023/05/26 04:57:01;;;;;;;;;33.00;30.00;;;;;20.07;67.95;99304.59;7773301;22;96444;-59
2023/05/26 05:00:19;;;;;;;;;33.40;28.80;;;;;20.10;66.75;99301.28;7773710;22;96269;-59
2023/05/26 05:03:28;;;;;;;;;34.50;30.75;;;;;20.16;65.64;99304.84;7776538;22;97454;-59
2023/05/26 05:06:41;;;;;;;;;32.60;30.00;;;;;20.32;66.07;99301.06;7775980;22;96343;-59
2023/05/26 05:09:44;;;;;;;;;36.40;32.00;;;;;20.40;65.11;99302.41;7776223;22;96487;-59
2023/05/26 05:12:48;;;;;;;;;32.00;29.00;;;;;20.48;64.07;99305.41;7774530;22;96340;-59
2023/05/26 05:15:52;;;;;;;;;32.00;27.00;;;;;20.59;63.99;99306.22;7776422;22;96308;-59
2023/05/26 05:18:55;;;;;;;;;32.40;28.00;;;;;20.68;63.01;99310.84;7746542;22;97247;-59
2023/05/26 05:22:00;;;;;;;;;32.60;29.60;;;;;20.79;63.73;99306.16;7776681;22;96234;-59
2023/05/26 05:25:05;;;;;;;;;34.00;30.00;;;;;20.84;63.86;99310.81;7802455;22;96207;-59
2023/05/26 05:28:10;;;;;;;;;38.00;30.60;;;;;21.00;63.24;99309.66;7774904;22;96283;-59
2023/05/26 05:31:22;;;;;;;;;34.00;31.00;;;;;21.25;62.62;99312.34;7777669;22;96233;-59
2023/05/26 05:34:26;;;;;;;;;32.00;28.00;;;;;21.46;61.30;99315.78;7803604;22;96194;-59
2023/05/26 05:37:31;;;;;;;;;36.25;29.00;;;;;21.57;59.17;99301.75;7777999;22;96029;-59
2023/05/26 05:40:35;;;;;;;;;31.80;28.60;;;;;21.71;58.71;99306.59;7777799;22;96285;-59
2023/05/26 05:43:39;;;;;;;;;30.40;28.00;;;;;21.85;58.12;99313.09;7777047;22;96915;-59
2023/05/26 05:46:42;;;;;;;;;32.50;29.25;;;;;22.03;57.76;99318.78;7778593;22;96115;-59
2023/05/26 05:49:56;;;;;;;;;32.40;29.40;;;;;22.30;56.83;99323.78;7752999;22;98807;-59
2023/05/26 05:53:02;;;;;;;;;34.00;30.00;;;;;22.39;54.95;99324.78;7778301;22;96447;-59
2023/05/26 05:56:05;;;;;;;;;31.80;30.00;;;;;22.60;55.68;99324.59;7776775;22;96330;-59
2023/05/26 05:59:10;;;;;;;;;36.40;30.60;;;;;22.81;54.95;99324.16;7775602;22;96291;-59
2023/05/26 06:02:14;;;;;;;;;30.60;29.20;;;;;23.01;54.38;99331.34;7802425;22;96033;-59
2023/05/26 06:05:18;;;;;;;;;36.50;31.25;;;;;22.95;54.08;99332.50;7775255;22;96128;-59
2023/05/26 06:08:24;;;;;;;;;31.00;28.00;;;;;22.99;54.15;99333.56;7779426;22;96206;-59
2023/05/26 06:11:27;;;;;;;;;34.80;29.80;;;;;23.00;53.65;99340.72;7806282;22;96636;-59
2023/05/26 06:14:30;;;;;;;;;32.75;29.25;;;;;23.06;51.66;99349.72;7782244;22;95988;-59
2023/05/26 06:17:34;;;;;;;;;29.50;26.50;;;;;23.19;51.10;99338.84;7782743;22;96169;-60
2023/05/26 06:20:37;;;;;;;;;31.80;27.00;;;;;23.20;50.94;99334.16;7782344;22;96189;-60
2023/05/26 06:23:42;;;;;;;;;31.20;25.00;;;;;23.42;50.96;99337.16;7782213;22;96966;-59
2023/05/26 06:26:46;;;;;;;;;30.00;25.25;;;;;23.51;50.53;99338.19;7780247;22;96859;-59
2023/05/26 06:29:49;;;;;;;;;30.00;26.80;;;;;23.62;50.77;99344.38;7807895;22;96669;-60
2023/05/26 06:32:55;;;;;;;;;32.25;27.75;;;;;23.63;50.09;99343.25;7781653;22;96296;-60
2023/05/26 06:35:58;;;;;;;;;35.00;30.25;;;;;23.62;50.41;99347.13;7782969;22;96165;-60
2023/05/26 06:39:04;;;;;;;;;33.75;30.00;;;;;23.61;50.57;99351.81;7782317;22;96178;-59
2023/05/26 06:42:09;;;;;;;;;34.60;30.00;;;;;23.60;50.99;99343.88;7782054;22;96285;-59
2023/05/26 06:45:12;;;;;;;;;31.00;28.00;;;;;23.48;51.62;99347.03;7782658;22;96204;-59
2023/05/26 06:48:16;;;;;;;;;32.75;28.75;;;;;23.19;52.61;99352.59;7782010;22;96260;-59
2023/05/26 06:51:28;;;;;;;;;31.00;27.50;;;;;23.17;53.25;99360.31;7755719;22;96608;-59
2023/05/26 06:54:34;;;;;;;;;30.20;28.80;;;;;23.00;53.61;99348.97;7783292;22;96309;-59
2023/05/26 06:57:37;;;;;;;;;33.00;28.00;;;;;22.93;53.98;99356.72;7782131;22;96307;-59
2023/05/26 07:00:56;;;;;;;;;34.00;28.80;;;;;22.85;54.71;99358.19;7763449;22;96222;-59
2023/05/26 07:04:01;;;;;;;;;31.25;28.75;;;;;22.81;55.10;99359.06;7747243;22;97309;-59
2023/05/26 07:07:05;;;;;;;;;38.20;31.00;;;;;22.74;54.99;99351.16;7773798;22;96603;-59
2023/05/26 07:10:10;;;;;;;;;33.00;30.60;;;;;22.77;55.15;99356.06;7745963;22;96936;-60
2023/05/26 07:13:14;;;;;;;;;32.50;29.50;;;;;22.69;55.34;99353.09;7746076;22;96591;-59
2023/05/26 07:16:18;;;;;;;;;31.75;28.00;;;;;22.88;53.88;99359.53;7748286;22;96304;-59
2023/05/26 07:19:21;;;;;;;;;35.80;30.00;;;;;22.97;53.91;99356.97;7747156;22;96339;-59
2023/05/26 07:22:25;;;;;;;;;30.00;28.00;;;;;23.17;54.05;99352.06;7747316;22;96352;-59
2023/05/26 07:25:53;;;;;;;;;36.60;32.00;;;;;23.36;53.17;99354.06;7754204;22;96335;-60
2023/05/26 07:28:56;;;;;;;;;33.00;28.00;;;;;23.54;52.21;99353.28;7748116;22;96182;-60
2023/05/26 07:32:01;;;;;;;;;29.80;25.80;;;;;23.64;51.79;99347.66;7774908;22;96506;-60
2023/05/26 07:35:05;;;;;;;;;33.00;28.00;;;;;23.66;50.94;99351.75;7747054;22;96989;-59
2023/05/26 07:38:08;;;;;;;;;36.00;30.00;;;;;23.62;50.39;99350.69;7747514;22;97505;-59
2023/05/26 07:41:13;;;;;;;;;28.40;26.20;;;;;23.71;50.70;99345.34;7774482;22;96205;-60
2023/05/26 07:44:16;;;;;;;;;33.00;30.00;;;;;23.68;50.71;99345.94;7746144;22;96565;-60
2023/05/26 07:47:19;;;;;;;;;28.50;27.00;;;;;23.73;50.66;99345.88;7774133;22;96536;-59
2023/05/26 07:50:23;;;;;;;;;35.20;28.00;;;;;23.83;50.46;99351.25;7774040;22;96364;-60
2023/05/26 07:53:27;;;;;;;;;30.40;28.00;;;;;23.89;50.55;99346.47;7775261;22;96946;-60
2023/05/26 07:56:32;;;;;;;;;28.50;26.50;;;;;23.77;49.74;99357.94;7774611;22;96302;-60
2023/05/26 07:59:36;;;;;;;;;30.40;27.60;;;;;23.77;49.86;99355.16;7774959;22;96283;-60
2023/05/26 08:02:39;;;;;;;;;27.50;25.25;;;;;23.79;50.14;99360.41;7774996;22;96304;-60
2023/05/26 08:05:44;;;;;;;;;30.80;27.00;;;;;23.86;50.33;99352.56;7774342;22;96344;-59
2023/05/26 08:08:47;;;;;;;;;28.75;24.00;;;;;23.99;50.02;99363.69;7746271;22;96693;-59
2023/05/26 08:11:54;;;;;;;;;31.40;28.20;;;;;24.08;50.12;99361.06;7774860;22;96717;-59
2023/05/26 08:14:58;;;;;;;;;29.60;26.40;;;;;24.15;49.74;99367.81;7774834;22;96762;-60
2023/05/26 08:18:02;;;;;;;;;31.25;26.25;;;;;24.37;49.62;99364.50;7774929;22;96212;-60
2023/05/26 08:21:07;;;;;;;;;30.40;29.40;;;;;24.44;48.98;99361.31;7776104;22;97410;-59
2023/05/26 08:24:10;;;;;;;;;30.80;29.00;;;;;24.69;48.82;99358.13;7775140;22;97002;-60
2023/05/26 08:27:15;;;;;;;;;33.60;30.00;;;;;24.91;47.45;99352.81;7773554;22;96306;-60
2023/05/26 08:30:19;;;;;;;;;30.75;27.75;;;;;25.18;47.17;99356.69;7770936;22;96406;-60
2023/05/26 08:33:22;;;;;;;;;31.60;29.00;;;;;25.38;46.27;99362.63;7746267;22;98372;-60
2023/05/26 08:36:25;;;;;;;;;30.60;28.60;;;;;25.75;45.81;99353.34;7774012;22;96245;-60
2023/05/26 08:39:29;;;;;;;;;29.40;27.40;;;;;26.05;44.83;99351.78;7774981;22;97036;-60
2023/05/26 08:42:37;;;;;;;;;24.75;23.00;;;;;26.40;45.56;99347.38;7774462;22;96452;-60
2023/05/26 08:45:44;;;;;;;;;28.40;25.40;;;;;26.53;43.97;99348.47;7774078;22;96530;-60
2023/05/26 08:48:49;;;;;;;;;29.75;26.75;;;;;26.59;43.24;99334.19;7774281;22;96301;-60
2023/05/26 08:52:00;;;;;;;;;28.60;25.00;;;;;26.64;42.80;99349.81;7775254;22;96373;-60
2023/05/26 08:55:04;;;;;;;;;29.20;27.00;;;;;26.91;41.80;99355.22;7747682;22;96430;-60
2023/05/26 08:58:10;;;;;;;;;30.00;26.00;;;;;27.12;41.81;99350.75;7747242;22;96571;-60
2023/05/26 09:01:13;;;;;;;;;28.00;24.40;;;;;27.13;41.27;99337.72;7746315;22;96744;-60
2023/05/26 09:04:17;;;;;;;;;27.00;24.00;;;;;27.56;40.56;99349.78;7774780;22;96350;-60
2023/05/26 09:07:20;;;;;;;;;27.25;24.00;;;;;27.66;40.47;99353.41;7747115;22;96220;-60
2023/05/26 09:10:32;;;;;;;;;29.60;25.60;;;;;27.80;39.55;99334.69;7774910;22;97374;-60
2023/05/26 09:13:41;;;;;;;;;26.80;24.00;;;;;28.04;38.93;99335.03;7774551;22;96260;-60
2023/05/26 09:16:45;;;;;;;;;27.00;23.60;;;;;27.86;38.85;99344.47;7746499;22;98240;-60
2023/05/26 09:19:49;;;;;;;;;26.60;26.60;;;;;27.99;39.99;99335.19;7747001;22;99226;-60
2023/05/26 09:22:56;;;;;;;;;29.00;25.00;;;;;28.19;39.06;99339.31;7774515;22;96478;-60
2023/05/26 09:26:02;;;;;;;;;29.25;24.50;;;;;28.38;37.73;99332.28;7774360;22;96354;-60
2023/05/26 09:29:07;;;;;;;;;27.00;23.75;;;;;28.51;37.77;99333.22;7774585;22;96289;-60
2023/05/26 09:32:10;;;;;;;;;24.20;22.80;;;;;28.69;36.54;99334.81;7746824;22;96221;-60
2023/05/26 09:35:13;;;;;;;;;24.40;22.80;;;;;28.85;36.56;99335.94;7746334;22;96833;-60
2023/05/26 09:38:19;;;;;;;;;22.00;20.25;;;;;29.10;36.69;99331.44;7772347;22;96466;-60
2023/05/26 09:41:22;;;;;;;;;20.40;19.00;;;;;29.42;36.75;99331.97;7744933;22;98469;-60
2023/05/26 09:44:27;;;;;;;;;22.00;20.60;;;;;29.23;35.68;99326.78;7720378;22;98278;-60
2023/05/26 09:47:33;;;;;;;;;18.00;16.50;;;;;29.24;34.39;99326.47;7775111;22;96363;-60
2023/05/26 09:50:38;;;;;;;;;16.00;15.00;;;;;29.29;34.71;99306.84;7775174;22;96988;-60
2023/05/26 09:53:42;;;;;;;;;18.33;17.00;;;;;29.43;34.09;99314.97;7776032;22;96361;-60
2023/05/26 09:56:52;;;;;;;;;21.00;18.00;;;;;29.77;36.16;99324.22;7775873;22;96454;-60
2023/05/26 10:00:02;;;;;;;;;21.00;20.80;;;;;29.90;34.14;99324.00;7775303;22;96482;-60
2023/05/26 10:03:10;;;;;;;;;21.00;17.80;;;;;30.02;34.17;99314.91;7776019;22;96339;-60
2023/05/26 10:06:17;;;;;;;;;21.00;19.40;;;;;30.33;35.52;99315.28;7775689;22;97631;-60
2023/05/26 10:09:23;;;;;;;;;20.60;17.60;;;;;30.66;34.02;99311.69;7775716;22;96437;-60
2023/05/26 10:12:28;;;;;;;;;17.40;15.40;;;;;31.11;33.58;99314.47;7775865;22;97501;-60
2023/05/26 10:15:33;;;;;;;;;17.00;16.75;;;;;31.32;33.16;99304.84;7775789;22;96487;-60
2023/05/26 10:18:37;;;;;;;;;19.00;16.00;;;;;31.51;34.02;99295.06;7775399;22;96817;-60
2023/05/26 10:21:47;;;;;;;;;19.20;16.00;;;;;31.62;32.39;99305.41;7775001;22;96433;-60
2023/05/26 10:24:56;;;;;;;;;21.00;18.00;;;;;31.28;31.98;99291.94;7720969;22;96570;-60
2023/05/26 10:28:07;;;;;;;;;17.00;16.00;;;;;31.46;33.08;99314.81;7774215;22;96362;-60
2023/05/26 10:31:28;;;;;;;;;17.00;16.00;;;;;31.50;31.25;99312.94;7774030;22;96830;-60
2023/05/26 10:34:39;;;;;;;;;16.00;16.00;;;;;31.89;32.10;99311.41;7775715;22;96464;-60
2023/05/26 10:37:49;;;;;;;;;19.20;15.80;;;;;32.06;30.97;99303.53;7775660;22;96724;-60
2023/05/26 10:40:52;;;;;;;;;18.80;17.00;;;;;32.08;30.86;99286.47;7746825;22;97401;-60
2023/05/26 10:43:56;;;;;;;;;20.00;17.00;;;;;32.24;31.42;99301.31;7747349;22;98296;-60
2023/05/26 10:47:05;;;;;;;;;16.00;14.00;;;;;32.36;31.33;99294.84;7774787;22;96421;-60
2023/05/26 10:50:10;;;;;;;;;17.40;16.40;;;;;32.45;31.91;99292.72;7774893;22;97107;-60
2023/05/26 10:53:20;;;;;;;;;17.60;16.00;;;;;32.62;31.27;99293.22;7775149;22;96300;-60
2023/05/26 10:56:26;;;;;;;;;18.00;16.40;;;;;32.62;30.64;99284.81;7774449;22;96464;-60
2023/05/26 10:59:32;;;;;;;;;17.40;16.40;;;;;32.61;30.34;99291.56;7746877;22;96612;-60
2023/05/26 11:02:38;;;;;;;;;19.60;17.60;;;;;32.17;30.92;99292.72;7746210;22;96838;-60
2023/05/26 11:05:55;;;;;;;;;16.00;15.00;;;;;32.44;31.41;99291.91;7774817;22;96224;-60
2023/05/26 11:09:03;;;;;;;;;18.00;16.00;;;;;32.45;31.21;99292.72;7775418;22;96505;-60
2023/05/26 11:12:07;;;;;;;;;17.00;16.00;;;;;32.36;31.42;99289.25;7775499;22;96886;-60
2023/05/26 11:15:27;;;;;;;;;20.50;19.50;;;;;32.10;30.62;99284.13;7775363;22;96073;-60
2023/05/26 11:18:31;;;;;;;;;17.00;15.80;;;;;31.92;30.59;99283.59;7775205;22;97005;-60
2023/05/26 11:21:37;;;;;;;;;19.40;18.00;;;;;31.49;30.95;99270.34;7773683;22;96364;-61
2023/05/26 11:24:41;;;;;;;;;20.60;19.00;;;;;31.00;32.92;99286.22;7774999;22;96564;-61
2023/05/26 11:27:46;;;;;;;;;21.40;20.40;;;;;30.53;34.10;99294.16;7746016;22;96294;-61
2023/05/26 11:30:50;;;;;;;;;21.80;19.80;;;;;30.05;34.88;99278.91;7744400;22;96865;-61
2023/05/26 11:33:56;;;;;;;;;23.60;22.20;;;;;29.65;35.51;99288.84;7773805;22;96920;-61
2023/05/26 11:36:59;;;;;;;;;19.00;18.00;;;;;29.29;36.16;99283.81;7747144;22;96239;-61
2023/05/26 11:40:04;;;;;;;;;17.00;16.50;;;;;28.88;37.37;99280.94;7774238;22;96438;-61
2023/05/26 11:43:08;;;;;;;;;20.75;18.00;;;;;28.42;38.48;99280.53;7746707;22;96801;-61
2023/05/26 11:46:13;;;;;;;;;18.20;18.20;;;;;28.19;39.19;99270.81;7770956;22;96463;-61
2023/05/26 11:49:19;;;;;;;;;21.25;19.25;;;;;28.02;40.08;99270.78;7774015;22;96684;-61
2023/05/26 11:52:23;;;;;;;;;20.00;19.00;;;;;27.98;40.49;99275.34;7719725;22;97054;-61
2023/05/26 11:55:26;;;;;;;;;16.60;16.00;;;;;27.93;39.68;99276.34;7774282;22;96284;-61
2023/05/26 11:58:32;;;;;;;;;18.00;16.00;;;;;27.93;40.60;99269.97;7746931;22;96762;-61
2023/05/26 12:01:36;;;;;;;;;16.80;15.20;;;;;27.75;39.39;99268.34;7772716;22;96716;-61
2023/05/26 12:04:42;;;;;;;;;17.75;15.75;;;;;27.75;39.75;99265.59;7775214;22;96374;-61
2023/05/26 12:07:46;;;;;;;;;14.00;13.00;;;;;27.73;39.38;99259.53;7774911;22;96805;-61
2023/05/26 12:10:49;;;;;;;;;14.40;13.40;;;;;27.80;39.76;99274.56;7774230;22;96296;-61
2023/05/26 12:13:57;;;;;;;;;12.00;10.40;;;;;27.88;39.48;99270.13;7746513;22;96615;-61
2023/05/26 12:17:01;;;;;;;;;12.00;12.00;;;;;27.96;39.37;99264.59;7773344;22;96420;-61
2023/05/26 12:20:08;;;;;;;;;12.60;11.60;;;;;28.06;39.44;99262.63;7746619;22;97233;-61
2023/05/26 12:23:31;;;;;;;;;13.20;12.60;;;;;28.17;39.16;99256.44;7745860;22;96396;-61
2023/05/26 12:26:35;;;;;;;;;15.60;14.60;;;;;28.27;39.00;99258.88;7773732;22;96457;-61
2023/05/26 12:29:40;;;;;;;;;14.60;12.60;;;;;28.26;38.37;99257.25;7772975;22;96798;-61
2023/05/26 12:32:43;;;;;;;;;15.00;13.00;;;;;28.24;38.03;99256.78;7773475;22;96273;-61
2023/05/26 12:35:50;;;;;;;;;13.00;13.00;;;;;28.31;38.87;99247.94;7774528;22;96593;-61
2023/05/26 12:38:53;;;;;;;;;14.75;12.00;;;;;28.38;37.51;99249.06;7774899;22;96218;-61
2023/05/26 12:41:56;;;;;;;;;14.00;13.75;;;;;28.46;37.25;99246.59;7747169;22;96438;-61
2023/05/26 12:45:00;;;;;;;;;14.00;12.60;;;;;28.58;36.91;99244.78;7747079;22;96156;-61
2023/05/26 12:48:05;;;;;;;;;12.00;11.20;;;;;28.76;37.42;99235.25;7746048;22;98579;-62
2023/05/26 12:51:15;;;;;;;;;17.40;16.60;;;;;28.87;36.18;99238.47;7772882;22;96386;-62
2023/05/26 12:54:19;;;;;;;;;14.40;13.40;;;;;28.91;35.61;99239.44;7771302;22;96948;-62
2023/05/26 12:57:22;;;;;;;;;10.20;10.20;;;;;28.93;35.42;99231.56;7772492;22;96544;-62
2023/05/26 13:00:25;;;;;;;;;11.00;10.00;;;;;28.91;34.20;99233.88;7743361;22;96738;-62
2023/05/26 13:03:29;;;;;;;;;11.50;11.00;;;;;28.88;34.38;99228.19;7771894;22;96332;-62
2023/05/26 13:06:34;;;;;;;;;14.40;13.40;;;;;28.97;35.07;99227.00;7771592;22;96449;-61
2023/05/26 13:09:37;;;;;;;;;14.00;13.00;;;;;29.32;36.13;99224.03;7745508;22;96774;-62
2023/05/26 13:12:41;;;;;;;;;10.50;10.50;;;;;29.71;34.84;99227.16;7718136;22;96650;-62
2023/05/26 13:15:44;;;;;;;;;13.00;12.80;;;;;30.01;34.56;99210.38;7771453;22;96862;-62
2023/05/26 13:18:48;;;;;;;;;14.40;14.00;;;;;30.24;33.25;99224.72;7770066;22;96886;-62
2023/05/26 13:21:53;;;;;;;;;16.00;16.00;;;;;30.43;33.42;99231.38;7772184;22;96468;-62
2023/05/26 13:24:56;;;;;;;;;17.00;15.25;;;;;30.48;33.52;99233.16;7773025;22;96552;-62
2023/05/26 13:27:59;;;;;;;;;17.00;15.40;;;;;30.49;33.74;99205.00;7746056;22;97066;-62
2023/05/26 13:31:03;;;;;;;;;17.00;16.40;;;;;30.68;33.04;99210.00;7773487;22;97080;-62
2023/05/26 13:34:06;;;;;;;;;13.80;13.00;;;;;30.68;32.98;99223.09;7775210;22;96296;-62
2023/05/26 13:37:11;;;;;;;;;14.00;13.00;;;;;30.38;33.06;99208.53;7776211;22;96449;-62
2023/05/26 13:40:17;;;;;;;;;13.80;13.20;;;;;30.19;33.42;99216.59;7776192;22;96393;-62
2023/05/26 13:43:20;;;;;;;;;16.00;14.80;;;;;29.87;34.20;99224.56;7775503;22;96459;-62
2023/05/26 13:46:24;;;;;;;;;13.60;13.00;;;;;29.76;34.81;99225.34;7721751;22;97419;-62
2023/05/26 13:49:28;;;;;;;;;13.60;13.60;;;;;29.69;34.92;99225.88;7722129;22;97415;-62
2023/05/26 13:52:33;;;;;;;;;15.00;14.00;;;;;29.50;35.15;99215.25;7721447;22;96343;-62
2023/05/26 13:55:37;;;;;;;;;12.20;11.00;;;;;29.14;34.91;99188.00;7775999;22;96392;-62
2023/05/26 13:58:40;;;;;;;;;15.60;15.00;;;;;29.14;35.29;99217.75;7775888;22;96353;-62
2023/05/26 14:01:44;;;;;;;;;13.00;13.00;;;;;28.81;35.06;99220.38;7746661;22;98324;-62
2023/05/26 14:04:48;;;;;;;;;16.00;13.00;;;;;28.66;35.43;99218.13;7721123;22;98353;-62
2023/05/26 14:07:53;;;;;;;;;13.60;13.00;;;;;28.47;34.82;99213.00;7747420;22;96444;-61
2023/05/26 14:10:57;;;;;;;;;14.40;13.00;;;;;28.29;35.25;99219.75;7775166;22;96860;-62
2023/05/26 14:14:01;;;;;;;;;11.00;10.00;;;;;28.18;35.37;99219.28;7775522;22;96287;-62